Time;durP1;ratioP1;P1;durP2;ratioP2;P2;SDS_P1;SDS_P2;PMS_P1;PMS_P2;Temp;Humidity;BMP_temperature;BMP_pressure;BME280_temperature;BME280_humidity;BME280_pressure;Samples;Min_cycle;Max_cycle;Signal;HPM_P1;HPM_P2
2022/12/01 00:01:07;;;;;;;13.20;5.30;;;;;;;-2.40;75.06;100236.58;102251;1299;61753;-24
2022/12/01 00:03:34;;;;;;;12.70;5.80;;;;;;;-2.67;75.38;100235.09;102372;1299;75433;-24
2022/12/01 00:06:03;;;;;;;8.00;4.40;;;;;;;-2.84;75.77;100233.87;102300;1292;75788;-24
2022/12/01 00:08:31;;;;;;;15.60;7.70;;;;;;;-3.06;76.57;100235.89;102032;1299;73221;-24
2022/12/01 00:11:06;;;;;;;10.10;4.90;;;;;;;-3.04;77.40;100238.25;102369;1291;62544;-24
2022/12/01 00:13:33;;;;;;;4.60;2.80;;;;;;;-2.38;76.89;100233.48;101966;1304;61966;-24
2022/12/01 00:16:11;;;;;;;12.30;5.80;;;;;;;-2.08;75.08;100235.25;102395;1299;75293;-24
2022/12/01 00:18:38;;;;;;;10.30;5.80;;;;;;;-2.16;74.82;100234.47;102217;1295;75821;-24
2022/12/01 00:21:13;;;;;;;7.60;4.00;;;;;;;-2.34;75.17;100238.39;102335;1299;73284;-24
2022/12/01 00:23:48;;;;;;;12.20;7.50;;;;;;;-2.57;75.57;100234.68;102039;1297;61134;-24
2022/12/01 00:26:16;;;;;;;14.00;7.00;;;;;;;-2.87;76.08;100238.83;102221;1299;61193;-24
2022/12/01 00:28:43;;;;;;;13.50;6.90;;;;;;;-3.14;76.98;100242.55;101982;1302;75269;-24
2022/12/01 00:31:11;;;;;;;15.20;5.70;;;;;;;-3.31;78.01;100244.36;102288;1292;75582;-24
2022/12/01 00:33:38;;;;;;;12.00;6.10;;;;;;;-3.45;78.60;100246.80;102275;1299;73839;-24
2022/12/01 00:36:07;;;;;;;12.50;6.10;;;;;;;-3.23;78.63;100243.30;102070;1302;62718;-24
2022/12/01 00:38:34;;;;;;;9.90;6.60;;;;;;;-2.42;76.93;100237.77;101974;1299;62055;-24
2022/12/01 00:41:02;;;;;;;15.70;7.80;;;;;;;-1.88;74.67;100242.19;102059;1299;75273;-24
2022/12/01 00:43:29;;;;;;;15.80;8.30;;;;;;;-1.86;73.79;100240.80;102348;1298;75698;-24
2022/12/01 00:45:57;;;;;;;10.20;6.40;;;;;;;-1.98;74.09;100236.84;102369;1297;74213;-24
2022/12/01 00:48:25;;;;;;;13.80;5.50;;;;;;;-2.15;74.60;100237.52;102303;1291;61347;-24
2022/12/01 00:50:52;;;;;;;10.40;5.00;;;;;;;-2.39;75.13;100234.00;102260;1291;61727;-24
2022/12/01 00:53:20;;;;;;;14.70;7.90;;;;;;;-2.63;75.50;100230.46;102374;1291;75317;-24
2022/12/01 00:55:47;;;;;;;13.50;7.70;;;;;;;-2.81;76.45;100232.15;102344;1292;75801;-24
2022/12/01 00:58:14;;;;;;;11.90;6.80;;;;;;;-3.19;77.44;100233.59;102304;1299;73670;-24
2022/12/01 01:00:42;;;;;;;10.10;4.00;;;;;;;-3.68;79.42;100234.51;102380;1299;62574;-23
2022/12/01 01:03:09;;;;;;;7.40;3.80;;;;;;;-2.86;78.50;100227.41;102377;1299;61742;-24
2022/12/01 01:05:37;;;;;;;15.00;5.80;;;;;;;-2.09;76.18;100225.55;102151;1300;75250;-24
2022/12/01 01:08:06;;;;;;;11.70;6.40;;;;;;;-1.89;74.77;100221.60;102189;1297;75427;-24
2022/12/01 01:10:38;;;;;;;13.50;6.50;;;;;;;-2.05;74.53;100223.98;102161;1297;74287;-24
2022/12/01 01:13:05;;;;;;;12.40;7.50;;;;;;;-2.30;74.55;100222.36;102031;1299;61170;-24
2022/12/01 01:15:33;;;;;;;11.80;5.80;;;;;;;-2.53;75.16;100219.17;102270;1292;62041;-24
2022/12/01 01:18:01;;;;;;;7.00;4.20;;;;;;;-2.74;75.60;100220.88;102220;1298;75506;-24
2022/12/01 01:20:28;;;;;;;12.50;7.10;;;;;;;-2.88;75.61;100220.13;102252;1298;75867;-24
2022/12/01 01:22:56;;;;;;;5.50;3.50;;;;;;;-3.07;76.05;100220.95;102270;1291;74033;-24
2022/12/01 01:25:23;;;;;;;6.00;3.60;;;;;;;-3.09;76.36;100216.88;102307;1299;62698;-24
2022/12/01 01:27:50;;;;;;;8.50;4.30;;;;;;;-2.48;75.55;100217.41;102371;1299;61857;-24
2022/12/01 01:30:20;;;;;;;7.80;3.80;;;;;;;-2.09;73.56;100219.27;102389;1297;75293;-25
2022/12/01 01:32:47;;;;;;;5.90;3.80;;;;;;;-2.14;72.89;100217.95;102451;1299;75582;-24
2022/12/01 01:35:15;;;;;;;10.10;5.60;;;;;;;-2.34;72.68;100218.48;102296;1297;73922;-24
2022/12/01 01:37:43;;;;;;;7.60;4.60;;;;;;;-2.54;72.80;100221.55;102294;1299;61091;-24
2022/12/01 01:40:11;;;;;;;5.50;3.30;;;;;;;-2.72;73.59;100219.68;102260;1297;61824;-24
2022/12/01 01:42:38;;;;;;;7.60;4.70;;;;;;;-2.88;74.12;100215.55;101960;1299;75231;-25
2022/12/01 01:45:18;;;;;;;4.80;3.30;;;;;;;-3.03;74.21;100219.38;102228;1299;74694;-24
2022/12/01 01:47:46;;;;;;;9.70;4.20;;;;;;;-3.18;74.48;100213.54;101946;1292;74307;-24
2022/12/01 01:50:14;;;;;;;8.30;4.50;;;;;;;-3.31;74.90;100211.40;101910;1301;61714;-26
2022/12/01 01:52:47;;;;;;;7.50;4.40;;;;;;;-3.39;75.09;100210.95;101121;1297;1290877;-24
2022/12/01 01:55:14;;;;;;;8.30;4.10;;;;;;;-3.29;75.49;100210.04;101896;1302;74842;-25
2022/12/01 01:57:42;;;;;;;13.00;5.70;;;;;;;-2.41;75.28;100204.23;102017;1301;75876;-25
2022/12/01 02:00:12;;;;;;;16.80;6.10;;;;;;;-1.66;73.41;100202.60;102281;1299;74014;-25
2022/12/01 02:02:44;;;;;;;10.10;4.10;;;;;;;-1.55;71.39;100201.09;101981;1299;61182;-25
2022/12/01 02:05:14;;;;;;;9.20;4.90;;;;;;;-1.66;72.04;100198.52;102012;1297;61913;-25
2022/12/01 02:07:41;;;;;;;11.70;5.20;;;;;;;-1.85;72.20;100196.36;101877;1297;74477;-25
2022/12/01 02:10:10;;;;;;;8.40;5.20;;;;;;;-2.06;71.96;100193.70;102248;1299;75772;-25
2022/12/01 02:12:59;;;;;;;12.10;5.00;;;;;;;-2.23;72.66;100194.39;102005;1303;74230;-25
2022/12/01 02:15:49;;;;;;;6.50;4.40;;;;;;;-2.45;72.63;100191.89;102104;1295;61596;-24
2022/12/01 02:18:29;;;;;;;8.10;4.80;;;;;;;-2.65;73.33;100193.44;101963;1299;61845;-25
2022/12/01 02:21:12;;;;;;;10.00;5.50;;;;;;;-2.80;73.74;100190.15;102121;1294;74970;-24
2022/12/01 02:24:10;;;;;;;9.30;5.80;;;;;;;-2.99;74.26;100187.07;102038;1294;75638;-25
2022/12/01 02:26:43;;;;;;;10.70;5.70;;;;;;;-3.09;74.75;100180.86;102324;1295;73410;-25
2022/12/01 02:29:45;;;;;;;9.10;4.70;;;;;;;-3.18;74.76;100184.33;102114;1292;61850;-24
2022/12/01 02:32:32;;;;;;;6.80;3.80;;;;;;;-2.73;75.50;100189.74;102073;1302;61736;-24
2022/12/01 02:35:00;;;;;;;9.00;5.10;;;;;;;-1.78;72.53;100189.63;101943;1297;75415;-25
2022/12/01 02:37:32;;;;;;;8.00;3.80;;;;;;;-1.51;70.86;100186.39;101990;1301;74690;-24
2022/12/01 02:40:19;;;;;;;9.30;5.80;;;;;;;-1.64;70.12;100186.73;101944;1291;74135;-25
2022/12/01 02:42:48;;;;;;;11.10;6.50;;;;;;;-2.00;70.57;100191.24;102323;1299;61013;-25
2022/12/01 02:45:23;;;;;;;14.20;6.70;;;;;;;-2.40;72.45;100191.48;101991;1297;61765;-25
2022/12/01 02:47:51;;;;;;;11.90;5.30;;;;;;;-2.72;73.60;100194.35;102041;1295;75363;-24
2022/12/01 02:50:19;;;;;;;9.80;6.10;;;;;;;-2.81;74.02;100195.43;102175;1299;74877;-24
2022/12/01 02:52:46;;;;;;;14.50;6.20;;;;;;;-3.09;75.34;100195.13;101990;1296;74242;-25
2022/12/01 02:55:14;;;;;;;10.90;7.10;;;;;;;-3.33;76.64;100194.60;101913;1297;62011;-24
2022/12/01 02:57:41;;;;;;;21.80;11.40;;;;;;;-3.56;78.09;100191.69;102278;1299;61748;-24
2022/12/01 03:00:12;;;;;;;9.10;5.70;;;;;;;-3.34;78.37;100190.86;102291;1292;75310;-24
2022/12/01 03:02:50;;;;;;;11.90;6.80;;;;;;;-2.59;76.25;100188.09;102082;1299;75688;-24
2022/12/01 03:12:46;;;;;;;13.50;8.40;;;;;;;-3.23;77.49;100181.30;99113;1337;600183;-23
2022/12/01 03:15:29;;;;;;;12.10;6.50;;;;;;;-3.33;78.50;100184.08;101223;1313;62351;-25
2022/12/01 03:18:05;;;;;;;15.30;8.90;;;;;;;-3.60;79.70;100183.88;101283;1296;61204;-25
2022/12/01 03:21:00;;;;;;;7.00;5.10;;;;;;;-3.67;80.47;100185.62;101111;1307;75100;-25
2022/12/01 03:23:29;;;;;;;9.70;6.00;;;;;;;-2.70;78.18;100182.58;101222;1303;76753;-25
2022/12/01 03:25:56;;;;;;;10.70;6.30;;;;;;;-2.56;76.34;100182.48;100454;1311;1148329;-25
2022/12/01 03:28:27;;;;;;;12.70;8.20;;;;;;;-2.87;76.88;100181.55;101407;1304;61859;-25
2022/12/01 03:30:58;;;;;;;22.80;12.40;;;;;;;-3.13;78.21;100182.23;101294;1309;62855;-25
2022/12/01 03:33:32;;;;;;;22.30;12.00;;;;;;;-2.94;78.46;100181.59;101176;1310;75286;-25
2022/12/01 03:36:06;;;;;;;133.80;38.60;;;;;;;-3.27;78.91;100182.34;101277;1306;75700;-25
2022/12/01 03:38:35;;;;;;;161.50;39.90;;;;;;;-3.40;79.97;100182.92;101294;1311;75311;-25
2022/12/01 03:41:06;;;;;;;56.30;16.80;;;;;;;-3.37;80.30;100181.73;101247;1308;61932;-25
2022/12/01 03:43:35;;;;;;;33.00;10.90;;;;;;;-3.47;80.39;100184.33;101309;1313;62869;-25
2022/12/01 03:46:22;;;;;;;47.40;20.10;;;;;;;-3.41;80.36;100178.69;101371;1306;75541;-25
2022/12/01 03:48:51;;;;;;;21.20;9.00;;;;;;;-2.97;78.99;100174.98;101052;1314;75861;-25
2022/12/01 03:51:55;;;;;;;23.00;12.30;;;;;;;-2.45;77.46;100172.15;101364;1307;74128;-25
2022/12/01 03:54:28;;;;;;;18.20;10.10;;;;;;;-3.23;79.48;100171.95;101007;1313;61229;-23
2022/12/01 03:56:58;;;;;;;18.40;8.60;;;;;;;-3.05;79.44;100173.02;101331;1311;63438;-23
2022/12/01 03:59:25;;;;;;;10.60;6.20;;;;;;;-3.06;79.09;100173.19;101172;1306;74588;-22
2022/12/01 04:01:52;;;;;;;16.30;7.20;;;;;;;-3.10;79.11;100174.58;101192;1306;76599;-24
2022/12/01 04:04:20;;;;;;;90.20;34.70;;;;;;;-3.37;79.73;100177.14;101168;1311;75152;-25
2022/12/01 04:06:49;;;;;;;44.00;17.00;;;;;;;-3.63;81.56;100184.08;101198;1310;63664;-25
2022/12/01 04:09:16;;;;;;;32.50;13.40;;;;;;;-3.11;80.29;100180.20;101291;1304;62708;-25
2022/12/01 04:14:29;;;;;;;19.60;10.70;;;;;;;-2.90;78.70;100181.23;101205;1313;76020;-25
2022/12/01 04:16:56;;;;;;;31.80;13.90;;;;;;;-2.92;78.81;100183.11;101209;1303;75040;-25
2022/12/01 04:19:24;;;;;;;17.20;9.10;;;;;;;-2.99;78.60;100182.30;101273;1311;62052;-25
2022/12/01 04:21:51;;;;;;;33.70;13.30;;;;;;;-3.31;79.85;100182.19;101382;1309;61823;-25
2022/12/01 04:24:18;;;;;;;51.20;22.60;;;;;;;-3.54;80.93;100182.15;101327;1311;75571;-25
2022/12/01 04:26:45;;;;;;;12.30;5.40;;;;;;;-3.71;81.76;100182.23;101292;1304;76751;-25
2022/12/01 04:29:12;;;;;;;13.10;5.40;;;;;;;-3.02;80.71;100187.93;101392;1306;75090;-26
2022/12/01 04:31:40;;;;;;;10.10;5.60;;;;;;;-2.39;78.34;100183.84;101607;1307;61987;-25
2022/12/01 04:34:08;;;;;;;10.00;4.80;;;;;;;-2.46;77.18;100188.84;101681;1302;61500;-25
2022/12/01 04:36:35;;;;;;;13.20;6.70;;;;;;;-2.70;77.43;100185.14;101473;1307;75359;-25
2022/12/01 04:39:03;;;;;;;16.90;7.20;;;;;;;-2.96;78.73;100184.16;101583;1303;75925;-25
2022/12/01 04:41:30;;;;;;;36.00;15.80;;;;;;;-3.01;79.04;100182.66;101608;1309;75012;-25
2022/12/01 04:43:58;;;;;;;36.90;15.60;;;;;;;-3.34;80.42;100183.40;101539;1306;62201;-25
2022/12/01 04:46:25;;;;;;;20.90;9.40;;;;;;;-3.42;80.92;100183.79;101448;1300;62678;-25
2022/12/01 04:48:52;;;;;;;18.70;7.80;;;;;;;-3.65;81.87;100185.27;101504;1303;74364;-25
2022/12/01 04:51:21;;;;;;;18.20;7.10;;;;;;;-3.24;81.53;100183.84;101742;1308;74771;-25
2022/12/01 04:53:49;;;;;;;34.50;14.10;;;;;;;-2.51;79.15;100181.23;101429;1303;75217;-25
2022/12/01 04:56:16;;;;;;;19.00;8.00;;;;;;;-2.18;78.06;100184.13;101381;1307;62031;-26
2022/12/01 04:58:43;;;;;;;10.00;4.80;;;;;;;-2.22;77.08;100185.70;101763;1307;62151;-24
2022/12/01 05:01:11;;;;;;;10.60;4.90;;;;;;;-2.39;77.20;100182.98;101409;1301;74245;-25
2022/12/01 05:03:40;;;;;;;62.30;28.80;;;;;;;-2.96;78.34;100184.66;101413;1310;75720;-25
2022/12/01 05:06:16;;;;;;;51.70;24.60;;;;;;;-3.15;80.19;100187.02;101466;1301;73930;-25
2022/12/01 05:08:43;;;;;;;38.90;18.30;;;;;;;-3.56;81.18;100190.31;101316;1304;61193;-25
2022/12/01 05:11:11;;;;;;;23.20;11.60;;;;;;;-3.66;82.39;100190.70;101629;1307;62853;-25
2022/12/01 05:13:39;;;;;;;29.40;14.60;;;;;;;-3.08;81.77;100192.23;101530;1308;75650;-25
2022/12/01 05:16:07;;;;;;;33.40;18.40;;;;;;;-2.50;79.75;100191.94;101557;1309;75760;-25
2022/12/01 05:18:35;;;;;;;17.30;8.00;;;;;;;-2.59;78.54;100192.19;101579;1303;73036;-25
2022/12/01 05:21:03;;;;;;;18.50;9.30;;;;;;;-2.70;78.60;100192.80;101506;1310;61165;-25
2022/12/01 05:23:31;;;;;;;50.30;22.40;;;;;;;-2.89;79.22;100192.27;101747;1300;61852;-25
2022/12/01 05:25:59;;;;;;;67.70;28.80;;;;;;;-3.26;80.93;100193.20;101492;1310;75660;-25
2022/12/01 05:28:26;;;;;;;80.00;30.00;;;;;;;-3.43;82.16;100193.13;101618;1307;76615;-25
2022/12/01 05:30:54;;;;;;;25.10;12.50;;;;;;;-3.56;82.59;100192.17;101548;1303;75245;-25
2022/12/01 05:33:22;;;;;;;20.40;9.40;;;;;;;-3.43;82.35;100185.31;101602;1308;61925;-25
2022/12/01 05:35:49;;;;;;;17.60;9.60;;;;;;;-3.19;81.27;100186.19;101303;1308;61827;-26
2022/12/01 05:38:17;;;;;;;40.90;17.60;;;;;;;-3.31;81.75;100191.88;101384;1307;75636;-25
2022/12/01 05:40:51;;;;;;;48.70;21.70;;;;;;;-3.36;81.61;100189.19;101593;1300;76786;-25
2022/12/01 05:43:19;;;;;;;148.90;63.00;;;;;;;-3.53;82.71;100193.53;101403;1302;75197;-25
2022/12/01 05:45:55;;;;;;;230.10;129.60;;;;;;;-3.52;82.76;100195.55;101854;1296;61153;-25
2022/12/01 05:48:22;;;;;;;35.70;19.30;;;;;;;-3.69;83.36;100195.80;101904;1303;61563;-25
2022/12/01 05:50:50;;;;;;;35.60;15.60;;;;;;;-3.00;82.58;100196.92;101894;1304;74485;-24
2022/12/01 05:53:17;;;;;;;20.50;10.10;;;;;;;-2.43;79.80;100195.27;101907;1301;75576;-25
2022/12/01 05:55:45;;;;;;;27.90;13.40;;;;;;;-2.75;78.77;100193.34;101843;1303;74959;-25
2022/12/01 05:58:12;;;;;;;53.80;24.00;;;;;;;-2.85;79.62;100191.04;101892;1296;62141;-25
2022/12/01 06:00:40;;;;;;;61.20;26.30;;;;;;;-3.05;80.25;100193.73;101839;1302;62570;-25
2022/12/01 06:03:12;;;;;;;43.50;17.20;;;;;;;-3.39;81.43;100195.14;101919;1290;75617;-25
2022/12/01 06:05:40;;;;;;;26.90;11.90;;;;;;;-3.38;81.74;100196.16;101975;1303;77068;-25
2022/12/01 06:08:07;;;;;;;17.40;8.80;;;;;;;-3.57;82.42;100194.56;102056;1301;75264;-25
2022/12/01 06:10:34;;;;;;;43.80;17.90;;;;;;;-3.32;82.20;100194.08;101806;1305;62515;-25
2022/12/01 06:13:01;;;;;;;54.90;20.50;;;;;;;-2.50;80.22;100195.16;101972;1296;62842;-25
2022/12/01 06:15:29;;;;;;;33.90;14.80;;;;;;;-2.15;78.67;100198.55;101889;1304;75592;-25
2022/12/01 06:17:59;;;;;;;16.80;9.40;;;;;;;-2.16;77.92;100196.70;102085;1302;75797;-25
2022/12/01 06:20:26;;;;;;;19.00;8.10;;;;;;;-2.44;77.97;100199.52;101851;1301;75169;-25
2022/12/01 06:22:54;;;;;;;12.10;6.40;;;;;;;-2.67;78.13;100194.80;101895;1303;62211;-25
2022/12/01 06:25:21;;;;;;;11.60;6.90;;;;;;;-3.00;78.92;100193.36;101933;1293;63061;-25
2022/12/01 06:27:48;;;;;;;32.00;15.30;;;;;;;-3.23;80.26;100189.27;101932;1301;76150;-25
2022/12/01 06:30:16;;;;;;;26.20;12.60;;;;;;;-3.38;81.80;100190.56;101906;1304;76693;-25
2022/12/01 06:32:43;;;;;;;41.80;18.00;;;;;;;-3.14;81.55;100188.87;102128;1299;74019;-25
2022/12/01 06:35:11;;;;;;;15.10;8.50;;;;;;;-2.68;79.42;100191.08;101898;1301;61149;-25
2022/12/01 06:37:38;;;;;;;50.40;20.90;;;;;;;-2.44;79.10;100193.24;101924;1303;63209;-25
2022/12/01 06:40:06;;;;;;;35.00;15.60;;;;;;;-2.43;78.57;100194.59;102101;1305;75323;-25
2022/12/01 06:42:33;;;;;;;66.80;26.70;;;;;;;-2.89;79.35;100191.42;101891;1300;75803;-25
2022/12/01 06:45:01;;;;;;;66.90;28.70;;;;;;;-2.94;80.28;100195.02;101991;1302;74924;-25
2022/12/01 06:47:28;;;;;;;19.70;9.80;;;;;;;-3.31;80.99;100191.88;101843;1304;61354;-25
2022/12/01 06:49:55;;;;;;;30.00;13.60;;;;;;;-3.42;81.24;100193.98;102097;1301;62525;-25
2022/12/01 06:52:22;;;;;;;55.90;23.50;;;;;;;-3.64;82.30;100196.14;101897;1304;76178;-25
2022/12/01 06:54:49;;;;;;;19.00;9.90;;;;;;;-3.11;81.41;100197.69;101919;1296;76580;-25
2022/12/01 06:57:17;;;;;;;17.80;6.80;;;;;;;-2.55;78.84;100199.64;102070;1300;75402;-25
2022/12/01 06:59:45;;;;;;;18.10;8.60;;;;;;;-2.27;77.33;100200.90;102034;1301;61137;-25
2022/12/01 07:02:12;;;;;;;13.90;6.40;;;;;;;-2.69;77.37;100198.39;101900;1302;61651;-25
2022/12/01 07:04:40;;;;;;;32.80;14.60;;;;;;;-2.97;78.78;100195.39;101890;1295;74468;-25
2022/12/01 07:07:07;;;;;;;32.00;14.80;;;;;;;-3.18;80.11;100195.70;101853;1304;76795;-25
2022/12/01 07:09:34;;;;;;;59.80;26.90;;;;;;;-3.36;80.82;100198.01;101990;1288;75179;-26
2022/12/01 07:12:01;;;;;;;58.80;23.20;;;;;;;-3.42;81.63;100197.55;102089;1301;61288;-25
2022/12/01 07:14:30;;;;;;;18.10;8.70;;;;;;;-3.31;81.96;100198.50;101959;1297;61735;-25
2022/12/01 07:16:57;;;;;;;33.10;13.80;;;;;;;-2.68;80.57;100202.29;101901;1303;74757;-25
2022/12/01 07:19:25;;;;;;;40.90;19.70;;;;;;;-2.21;77.98;100200.83;101846;1304;77138;-25
2022/12/01 07:21:52;;;;;;;63.30;28.80;;;;;;;-2.39;77.62;100196.59;101850;1295;73837;-25
2022/12/01 07:24:19;;;;;;;29.70;14.50;;;;;;;-2.60;77.79;100198.33;101872;1304;61854;-25
2022/12/01 07:26:47;;;;;;;25.40;12.10;;;;;;;-2.84;78.28;100192.05;101902;1304;63029;-25
2022/12/01 07:29:14;;;;;;;22.60;10.50;;;;;;;-2.75;78.47;100192.84;101923;1304;76611;-25
2022/12/01 07:31:41;;;;;;;22.20;11.50;;;;;;;-2.92;79.13;100195.86;101881;1297;76742;-25
2022/12/01 07:34:12;;;;;;;20.30;9.70;;;;;;;-3.07;79.69;100194.61;101871;1304;74289;-25
2022/12/01 07:36:39;;;;;;;31.50;14.50;;;;;;;-3.03;79.90;100194.73;101852;1291;62120;-26
2022/12/01 07:39:07;;;;;;;27.70;10.50;;;;;;;-3.08;80.47;100195.63;101879;1301;62928;-25
2022/12/01 07:41:34;;;;;;;30.80;15.70;;;;;;;-2.69;79.29;100197.38;101914;1303;76445;-25
2022/12/01 07:44:02;;;;;;;35.90;20.20;;;;;;;-2.46;77.61;100197.34;101946;1295;75912;-25
2022/12/01 07:46:29;;;;;;;42.60;19.90;;;;;;;-2.32;77.39;100197.38;101903;1304;75121;-25
2022/12/01 07:48:56;;;;;;;24.10;16.90;;;;;;;-2.33;76.91;100193.80;101856;1297;61958;-25
2022/12/01 07:51:24;;;;;;;27.40;13.10;;;;;;;-2.73;77.27;100196.89;101968;1304;62731;-25
2022/12/01 07:53:52;;;;;;;22.00;11.20;;;;;;;-2.91;78.55;100191.42;101873;1297;76321;-25
2022/12/01 07:56:19;;;;;;;33.30;15.10;;;;;;;-2.91;79.08;100188.20;101857;1307;76907;-25
2022/12/01 07:58:47;;;;;;;23.90;10.90;;;;;;;-2.75;79.57;100186.04;101861;1296;75168;-25
2022/12/01 08:01:16;;;;;;;32.40;15.90;;;;;;;-2.91;79.92;100185.83;101643;1305;62675;-25
2022/12/01 08:03:43;;;;;;;17.40;10.60;;;;;;;-2.16;77.90;100189.05;101904;1302;61102;-25
2022/12/01 08:06:11;;;;;;;15.90;8.90;;;;;;;-1.96;75.65;100189.67;101882;1304;76513;-25
2022/12/01 08:08:39;;;;;;;35.80;15.50;;;;;;;-1.77;74.88;100188.59;101913;1296;76765;-25
2022/12/01 08:11:10;;;;;;;17.70;9.60;;;;;;;-1.83;74.74;100191.21;101914;1304;74942;-25
2022/12/01 08:13:38;;;;;;;36.10;13.70;;;;;;;-1.95;75.51;100190.34;101862;1300;61063;-25
2022/12/01 08:16:06;;;;;;;34.30;14.40;;;;;;;-2.08;75.79;100200.18;101944;1304;61832;-25
2022/12/01 08:18:35;;;;;;;29.50;12.00;;;;;;;-2.64;77.26;100198.00;101898;1302;76286;-25
2022/12/01 08:21:03;;;;;;;34.60;16.80;;;;;;;-2.82;78.79;100200.88;101886;1296;76851;-25
2022/12/01 08:23:32;;;;;;;25.40;11.40;;;;;;;-2.70;79.15;100202.31;101782;1299;75384;-25
2022/12/01 08:26:03;;;;;;;33.30;16.00;;;;;;;-2.24;78.43;100201.52;101896;1299;63500;-25
2022/12/01 08:28:31;;;;;;;27.10;13.00;;;;;;;-1.62;75.21;100199.30;101960;1302;62020;-25
2022/12/01 08:30:58;;;;;;;18.00;9.40;;;;;;;-1.09;73.25;100199.42;101851;1296;76395;-26
2022/12/01 08:33:26;;;;;;;15.70;7.90;;;;;;;-0.93;71.87;100199.36;102097;1294;75784;-25
2022/12/01 08:35:53;;;;;;;17.20;9.20;;;;;;;-1.51;72.55;100197.80;101567;1302;74203;-25
2022/12/01 08:38:21;;;;;;;63.90;27.10;;;;;;;-1.62;73.81;100196.92;102236;1301;61801;-25
2022/12/01 08:40:55;;;;;;;42.30;18.30;;;;;;;-1.68;74.88;100196.83;102224;1301;61914;-25
2022/12/01 08:43:22;;;;;;;29.40;13.30;;;;;;;-1.72;74.35;100197.55;102203;1299;76370;-25
2022/12/01 08:46:12;;;;;;;16.70;8.10;;;;;;;-2.14;75.49;100194.46;102201;1301;76481;-24
2022/12/01 08:48:40;;;;;;;16.80;8.50;;;;;;;-2.02;75.72;100194.00;101886;1305;75242;-24
2022/12/01 08:51:10;;;;;;;25.50;12.60;;;;;;;-2.00;75.48;100194.31;102256;1293;62003;-25
2022/12/01 08:53:38;;;;;;;12.20;6.20;;;;;;;-2.19;76.13;100192.99;101956;1301;62882;-25
2022/12/01 08:56:17;;;;;;;26.30;10.30;;;;;;;-2.25;75.99;100186.06;102162;1301;74249;-25
2022/12/01 08:58:44;;;;;;;15.80;6.30;;;;;;;-2.45;76.83;100181.51;102218;1293;76536;-25
2022/12/01 09:01:13;;;;;;;17.70;8.90;;;;;;;-1.50;74.57;100177.33;102223;1301;75058;-25
2022/12/01 09:03:41;;;;;;;17.90;7.50;;;;;;;-1.36;73.03;100175.45;101946;1302;61969;-22
2022/12/01 09:06:13;;;;;;;12.20;5.90;;;;;;;-1.01;71.96;100173.23;102269;1299;61167;-22
2022/12/01 09:08:41;;;;;;;55.40;22.30;;;;;;;-0.78;71.40;100173.20;101848;1306;76401;-24
2022/12/01 09:11:13;;;;;;;72.40;27.00;;;;;;;-1.32;72.05;100169.08;102043;1300;76901;-25
2022/12/01 09:13:41;;;;;;;70.00;32.00;;;;;;;-1.21;72.42;100168.92;101958;1294;74326;-25
2022/12/01 09:16:13;;;;;;;22.20;11.20;;;;;;;-1.23;72.23;100164.87;102021;1294;61208;-25
2022/12/01 09:18:44;;;;;;;46.30;19.40;;;;;;;-1.77;73.51;100163.90;101977;1300;61981;-25
2022/12/01 09:21:13;;;;;;;33.50;18.00;;;;;;;-1.34;73.59;100160.09;102056;1294;76350;-25
2022/12/01 09:23:43;;;;;;;30.90;15.80;;;;;;;-1.22;72.04;100158.39;102152;1301;76995;-25
2022/12/01 09:26:10;;;;;;;29.60;15.60;;;;;;;-1.14;71.92;100154.51;102094;1301;75315;-25
2022/12/01 09:28:39;;;;;;;38.70;17.60;;;;;;;-1.55;72.12;100149.16;102254;1301;62139;-25
2022/12/01 09:31:08;;;;;;;23.40;13.30;;;;;;;-1.57;72.06;100152.06;102306;1294;63283;-25
2022/12/01 09:33:36;;;;;;;17.80;9.30;;;;;;;-1.01;71.39;100152.77;102102;1301;76370;-25
2022/12/01 09:36:04;;;;;;;25.90;11.50;;;;;;;-1.39;71.15;100150.95;102054;1301;76766;-25
2022/12/01 09:38:32;;;;;;;106.10;49.70;;;;;;;-1.13;71.26;100148.36;102073;1295;75393;-25
2022/12/01 09:41:05;;;;;;;30.90;16.60;;;;;;;-1.01;70.15;100149.37;101948;1296;61913;-25
2022/12/01 09:43:39;;;;;;;16.00;8.50;;;;;;;-0.99;69.04;100147.63;102153;1295;61512;-25
2022/12/01 09:46:08;;;;;;;16.60;9.30;;;;;;;-0.62;69.44;100147.86;102077;1302;75081;-25
2022/12/01 09:48:41;;;;;;;72.50;37.10;;;;;;;-0.51;67.88;100150.55;101896;1297;75482;-25
2022/12/01 09:51:12;;;;;;;31.80;19.70;;;;;;;-0.92;68.44;100151.95;102092;1301;75254;-25
2022/12/01 09:53:40;;;;;;;41.20;24.60;;;;;;;-1.03;68.84;100149.55;101941;1301;62069;-25
2022/12/01 09:56:21;;;;;;;34.80;17.00;;;;;;;-1.23;69.93;100147.48;102196;1301;61665;-25
2022/12/01 09:58:52;;;;;;;20.70;11.50;;;;;;;-0.67;68.35;100146.91;102063;1302;75596;-22
2022/12/01 10:01:19;;;;;;;30.40;16.30;;;;;;;-0.58;68.95;100143.17;101928;1302;75826;-22
2022/12/01 10:03:55;;;;;;;17.80;9.90;;;;;;;0.25;68.11;100139.86;102198;1301;75366;-23
2022/12/01 10:07:02;;;;;;;29.60;14.60;;;;;;;0.44;65.61;100137.74;102056;1302;62177;-23
2022/12/01 10:09:37;;;;;;;34.60;17.60;;;;;;;0.36;65.29;100139.45;101967;1300;61812;-22
2022/12/01 10:12:18;;;;;;;61.20;25.70;;;;;;;0.38;65.66;100137.88;102044;1300;76359;-25
2022/12/01 10:14:46;;;;;;;45.50;20.00;;;;;;;0.59;65.16;100131.75;102029;1303;76895;-25
2022/12/01 10:17:38;;;;;;;32.50;15.10;;;;;;;0.52;64.59;100126.47;102024;1303;73987;-25
2022/12/01 10:20:21;;;;;;;35.50;17.40;;;;;;;0.58;64.39;100122.73;102262;1301;62662;-25
2022/12/01 10:22:49;;;;;;;23.70;10.10;;;;;;;0.51;64.18;100124.27;102170;1296;61732;-23
2022/12/01 10:25:23;;;;;;;16.90;8.50;;;;;;;0.75;64.68;100123.20;102313;1293;75438;-23
2022/12/01 10:28:21;;;;;;;12.90;7.10;;;;;;;1.18;63.08;100119.42;102173;1301;76842;-23
2022/12/01 10:30:50;;;;;;;82.60;36.20;;;;;;;1.30;61.40;100113.98;102182;1299;75446;-23
2022/12/01 10:33:34;;;;;;;24.10;10.30;;;;;;;0.49;62.97;100110.63;102097;1300;61201;-23
2022/12/01 10:36:02;;;;;;;14.50;7.60;;;;;;;-0.60;65.83;100113.17;102124;1300;61313;-23
2022/12/01 10:38:31;;;;;;;52.00;26.90;;;;;;;-0.43;66.82;100110.66;102333;1297;76383;-23
2022/12/01 10:40:59;;;;;;;42.90;22.40;;;;;;;-0.17;65.87;100107.78;102185;1301;76837;-22
2022/12/01 10:43:32;;;;;;;25.30;10.30;;;;;;;0.07;65.64;100112.38;102332;1301;75181;-23
2022/12/01 10:46:00;;;;;;;15.10;8.80;;;;;;;-0.24;65.26;100108.58;101974;1301;61174;-23
2022/12/01 10:48:29;;;;;;;21.90;10.00;;;;;;;-0.51;65.96;100105.34;102056;1302;62822;-23
2022/12/01 10:51:14;;;;;;;35.20;16.10;;;;;;;-0.69;66.97;100105.86;102287;1301;76111;-23
2022/12/01 10:53:41;;;;;;;32.40;15.40;;;;;;;-0.23;65.93;100099.86;102168;1295;76654;-23
2022/12/01 10:56:13;;;;;;;58.50;22.90;;;;;;;-0.36;65.55;100097.73;102145;1301;74956;-23
2022/12/01 10:58:56;;;;;;;19.10;10.30;;;;;;;-0.10;65.50;100096.02;102154;1301;61122;-23
2022/12/01 11:01:30;;;;;;;86.10;32.60;;;;;;;-0.07;64.79;100093.57;102055;1301;61974;-25
2022/12/01 11:04:19;;;;;;;45.10;19.10;;;;;;;-0.67;66.21;100095.08;102162;1295;75784;-23
2022/12/01 11:06:48;;;;;;;57.20;21.30;;;;;;;-0.64;66.04;100088.88;102021;1291;75795;-23
2022/12/01 11:09:22;;;;;;;66.90;23.50;;;;;;;-0.76;66.41;100090.28;102201;1301;75229;-23
2022/12/01 11:12:00;;;;;;;58.80;23.50;;;;;;;-1.10;67.76;100089.85;102199;1298;61846;-23
2022/12/01 11:14:48;;;;;;;15.70;8.40;;;;;;;-0.89;67.90;100092.73;102252;1299;61496;-22
2022/12/01 11:17:22;;;;;;;17.40;7.70;;;;;;;-0.88;68.98;100091.00;102229;1294;75431;-23
2022/12/01 11:19:51;;;;;;;20.20;9.50;;;;;;;-0.60;68.30;100088.12;102233;1295;76500;-23
2022/12/01 11:22:33;;;;;;;43.60;18.20;;;;;;;-0.43;67.96;100089.16;102239;1301;75039;-22
2022/12/01 11:25:02;;;;;;;43.40;21.30;;;;;;;-0.59;67.25;100089.27;102180;1291;62053;-22
2022/12/01 11:27:50;;;;;;;71.30;32.40;;;;;;;-0.61;67.20;100083.20;102178;1301;63093;-22
2022/12/01 11:30:25;;;;;;;59.60;22.70;;;;;;;-1.01;68.12;100087.30;102053;1299;76364;-23
2022/12/01 11:32:55;;;;;;;114.10;48.40;;;;;;;-1.22;68.71;100080.31;102245;1293;76736;-22